sensor_id;sensor_type;location;lat;lon;timestamp;temperature;humidity
9977;DHT22;5029;47.378;11.776;2023-01-16T00:04:33;0.30;99.90
9977;DHT22;5029;47.378;11.776;2023-01-16T00:09:38;0.60;99.90
9977;DHT22;5029;47.378;11.776;2023-01-16T00:14:42;0.40;99.90
9977;DHT22;5029;47.378;11.776;2023-01-16T00:19:46;0.50;99.90
9977;DHT22;5029;47.378;11.776;2023-01-16T00:24:50;0.70;99.90
9977;DHT22;5029;47.378;11.776;2023-01-16T00:29:54;0.70;99.90
9977;DHT22;5029;47.378;11.776;2023-01-16T00:34:57;0.60;99.90
9977;DHT22;5029;47.378;11.776;2023-01-16T00:40:02;0.60;99.90
9977;DHT22;5029;47.378;11.776;2023-01-16T00:45:07;0.50;99.90
9977;DHT22;5029;47.378;11.776;2023-01-16T00:50:11;0.30;99.90
9977;DHT22;5029;47.378;11.776;2023-01-16T00:55:16;0.30;99.90
9977;DHT22;5029;47.378;11.776;2023-01-16T01:00:19;0.50;99.90
9977;DHT22;5029;47.378;11.776;2023-01-16T01:05:23;0.50;99.90
9977;DHT22;5029;47.378;11.776;2023-01-16T01:10:28;0.30;99.90
9977;DHT22;5029;47.378;11.776;2023-01-16T01:15:32;0.50;99.90
9977;DHT22;5029;47.378;11.776;2023-01-16T01:20:35;0.40;99.90
9977;DHT22;5029;47.378;11.776;2023-01-16T01:25:40;0.40;99.90
9977;DHT22;5029;47.378;11.776;2023-01-16T01:30:44;0.40;99.90
9977;DHT22;5029;47.378;11.776;2023-01-16T01:35:47;0.40;99.90
9977;DHT22;5029;47.378;11.776;2023-01-16T01:40:52;0.50;99.90
9977;DHT22;5029;47.378;11.776;2023-01-16T01:45:56;0.40;99.90
9977;DHT22;5029;47.378;11.776;2023-01-16T01:51:02;0.40;99.90
9977;DHT22;5029;47.378;11.776;2023-01-16T01:56:13;0.40;99.90
9977;DHT22;5029;47.378;11.776;2023-01-16T02:01:17;0.30;99.90
9977;DHT22;5029;47.378;11.776;2023-01-16T02:06:27;0.40;99.90
9977;DHT22;5029;47.378;11.776;2023-01-16T02:11:36;0.40;99.90
9977;DHT22;5029;47.378;11.776;2023-01-16T02:16:41;0.40;99.90
9977;DHT22;5029;47.378;11.776;2023-01-16T02:28:25;0.50;99.90
9977;DHT22;5029;47.378;11.776;2023-01-16T02:33:43;0.50;99.90
9977;DHT22;5029;47.378;11.776;2023-01-16T02:38:55;0.70;99.90
9977;DHT22;5029;47.378;11.776;2023-01-16T02:44:06;0.70;99.90
9977;DHT22;5029;47.378;11.776;2023-01-16T02:49:18;0.40;99.90
9977;DHT22;5029;47.378;11.776;2023-01-16T02:54:26;0.60;99.90
9977;DHT22;5029;47.378;11.776;2023-01-16T02:59:30;0.70;99.90
9977;DHT22;5029;47.378;11.776;2023-01-16T03:04:55;0.40;99.90
9977;DHT22;5029;47.378;11.776;2023-01-16T03:10:18;0.30;99.90
9977;DHT22;5029;47.378;11.776;2023-01-16T03:15:28;0.50;99.90
9977;DHT22;5029;47.378;11.776;2023-01-16T03:20:41;0.30;99.90
9977;DHT22;5029;47.378;11.776;2023-01-16T03:25:52;0.10;99.90
9977;DHT22;5029;47.378;11.776;2023-01-16T03:31:03;0.00;99.90
9977;DHT22;5029;47.378;11.776;2023-01-16T03:36:12;0.10;99.90
9977;DHT22;5029;47.378;11.776;2023-01-16T03:41:21;0.20;99.90
9977;DHT22;5029;47.378;11.776;2023-01-16T03:46:29;0.20;99.90
9977;DHT22;5029;47.378;11.776;2023-01-16T03:51:39;0.10;99.90
9977;DHT22;5029;47.378;11.776;2023-01-16T03:56:49;0.00;99.90
9977;DHT22;5029;47.378;11.776;2023-01-16T04:01:55;-0.10;99.90
9977;DHT22;5029;47.378;11.776;2023-01-16T04:07:06;0.00;99.90
9977;DHT22;5029;47.378;11.776;2023-01-16T04:12:12;0.00;99.90
9977;DHT22;5029;47.378;11.776;2023-01-16T04:17:20;0.20;99.90
9977;DHT22;5029;47.378;11.776;2023-01-16T04:22:27;0.10;99.90
9977;DHT22;5029;47.378;11.776;2023-01-16T04:27:30;0.10;99.90
9977;DHT22;5029;47.378;11.776;2023-01-16T04:32:34;0.10;99.90
9977;DHT22;5029;47.378;11.776;2023-01-16T04:37:39;0.10;99.90
9977;DHT22;5029;47.378;11.776;2023-01-16T04:42:42;0.20;99.90
9977;DHT22;5029;47.378;11.776;2023-01-16T04:47:46;0.10;99.90
9977;DHT22;5029;47.378;11.776;2023-01-16T04:52:51;-0.10;99.90
9977;DHT22;5029;47.378;11.776;2023-01-16T04:57:54;0.00;99.90
9977;DHT22;5029;47.378;11.776;2023-01-16T05:02:58;0.10;99.90
9977;DHT22;5029;47.378;11.776;2023-01-16T05:08:03;-0.20;99.90
9977;DHT22;5029;47.378;11.776;2023-01-16T05:13:18;-0.10;99.90
9977;DHT22;5029;47.378;11.776;2023-01-16T05:18:22;-0.10;99.90
9977;DHT22;5029;47.378;11.776;2023-01-16T05:23:27;0.00;99.90
9977;DHT22;5029;47.378;11.776;2023-01-16T05:28:31;-0.20;99.90
9977;DHT22;5029;47.378;11.776;2023-01-16T05:33:35;0.00;99.90
9977;DHT22;5029;47.378;11.776;2023-01-16T05:38:40;0.10;99.90
9977;DHT22;5029;47.378;11.776;2023-01-16T05:43:43;0.10;99.90
9977;DHT22;5029;47.378;11.776;2023-01-16T05:48:47;0.20;99.90
9977;DHT22;5029;47.378;11.776;2023-01-16T05:53:52;0.20;99.90
9977;DHT22;5029;47.378;11.776;2023-01-16T05:58:55;-0.10;99.90
9977;DHT22;5029;47.378;11.776;2023-01-16T06:03:59;0.00;99.90
9977;DHT22;5029;47.378;11.776;2023-01-16T06:09:04;0.00;99.90
9977;DHT22;5029;47.378;11.776;2023-01-16T06:14:07;0.10;99.90
9977;DHT22;5029;47.378;11.776;2023-01-16T06:19:11;0.00;99.90
9977;DHT22;5029;47.378;11.776;2023-01-16T06:24:16;0.00;99.90
9977;DHT22;5029;47.378;11.776;2023-01-16T06:29:19;0.00;99.90
9977;DHT22;5029;47.378;11.776;2023-01-16T06:34:22;0.10;99.90
9977;DHT22;5029;47.378;11.776;2023-01-16T06:39:27;0.10;99.90
9977;DHT22;5029;47.378;11.776;2023-01-16T06:44:31;-0.10;99.90
9977;DHT22;5029;47.378;11.776;2023-01-16T06:49:34;0.10;99.90
9977;DHT22;5029;47.378;11.776;2023-01-16T06:54:39;0.00;99.90
9977;DHT22;5029;47.378;11.776;2023-01-16T06:59:43;0.10;99.90
9977;DHT22;5029;47.378;11.776;2023-01-16T07:04:46;-0.30;99.90
9977;DHT22;5029;47.378;11.776;2023-01-16T07:09:51;-0.40;99.90
9977;DHT22;5029;47.378;11.776;2023-01-16T07:14:54;-0.40;99.90
9977;DHT22;5029;47.378;11.776;2023-01-16T07:20:15;-0.10;99.90
9977;DHT22;5029;47.378;11.776;2023-01-16T07:25:37;-0.30;99.90
9977;DHT22;5029;47.378;11.776;2023-01-16T07:30:41;-0.30;99.90
9977;DHT22;5029;47.378;11.776;2023-01-16T07:35:46;-0.30;99.90
9977;DHT22;5029;47.378;11.776;2023-01-16T07:40:50;-0.10;99.90
9977;DHT22;5029;47.378;11.776;2023-01-16T07:45:54;-0.30;99.90
9977;DHT22;5029;47.378;11.776;2023-01-16T07:50:58;-0.40;99.90
9977;DHT22;5029;47.378;11.776;2023-01-16T07:56:03;-0.40;99.90
9977;DHT22;5029;47.378;11.776;2023-01-16T08:01:07;-0.30;99.90
9977;DHT22;5029;47.378;11.776;2023-01-16T08:06:10;-0.70;99.90
9977;DHT22;5029;47.378;11.776;2023-01-16T08:11:15;-0.90;99.90
9977;DHT22;5029;47.378;11.776;2023-01-16T08:16:36;-0.80;99.90
9977;DHT22;5029;47.378;11.776;2023-01-16T08:21:40;-0.70;99.90
9977;DHT22;5029;47.378;11.776;2023-01-16T08:26:45;-0.70;99.90
9977;DHT22;5029;47.378;11.776;2023-01-16T08:31:48;-0.70;99.90
9977;DHT22;5029;47.378;11.776;2023-01-16T08:36:52;-0.50;99.90
9977;DHT22;5029;47.378;11.776;2023-01-16T08:41:56;-0.40;99.90
9977;DHT22;5029;47.378;11.776;2023-01-16T08:47:21;-0.80;99.90
9977;DHT22;5029;47.378;11.776;2023-01-16T08:52:43;-0.90;99.90
9977;DHT22;5029;47.378;11.776;2023-01-16T08:57:48;-0.90;99.90
9977;DHT22;5029;47.378;11.776;2023-01-16T09:02:52;-0.90;99.90
9977;DHT22;5029;47.378;11.776;2023-01-16T09:07:58;-0.60;99.90
9977;DHT22;5029;47.378;11.776;2023-01-16T09:13:03;-0.70;99.90
9977;DHT22;5029;47.378;11.776;2023-01-16T09:18:24;-0.70;99.90
9977;DHT22;5029;47.378;11.776;2023-01-16T09:23:27;-1.00;99.90
9977;DHT22;5029;47.378;11.776;2023-01-16T09:28:32;-1.00;99.90
9977;DHT22;5029;47.378;11.776;2023-01-16T09:33:36;-0.80;99.90
9977;DHT22;5029;47.378;11.776;2023-01-16T09:38:39;-0.80;99.90
9977;DHT22;5029;47.378;11.776;2023-01-16T09:43:47;-1.00;99.90
9977;DHT22;5029;47.378;11.776;2023-01-16T09:48:55;-0.80;99.90
9977;DHT22;5029;47.378;11.776;2023-01-16T09:54:03;-0.70;99.90
9977;DHT22;5029;47.378;11.776;2023-01-16T09:59:29;-1.00;99.90
9977;DHT22;5029;47.378;11.776;2023-01-16T10:04:35;-0.60;99.90
9977;DHT22;5029;47.378;11.776;2023-01-16T10:09:46;-0.60;99.90
9977;DHT22;5029;47.378;11.776;2023-01-16T10:15:02;-0.80;99.90
9977;DHT22;5029;47.378;11.776;2023-01-16T10:25:41;-0.90;99.90
9977;DHT22;5029;47.378;11.776;2023-01-16T10:30:53;-0.60;99.90
9977;DHT22;5029;47.378;11.776;2023-01-16T10:35:58;-0.60;99.90
9977;DHT22;5029;47.378;11.776;2023-01-16T10:41:03;-0.50;99.90
9977;DHT22;5029;47.378;11.776;2023-01-16T10:46:28;-0.30;99.90
9977;DHT22;5029;47.378;11.776;2023-01-16T10:51:54;-0.40;99.90
9977;DHT22;5029;47.378;11.776;2023-01-16T10:56:58;-0.30;99.90
9977;DHT22;5029;47.378;11.776;2023-01-16T11:02:16;-0.30;99.90
9977;DHT22;5029;47.378;11.776;2023-01-16T11:07:22;-0.10;99.90
9977;DHT22;5029;47.378;11.776;2023-01-16T11:12:31;-0.10;99.90
9977;DHT22;5029;47.378;11.776;2023-01-16T11:17:53;-0.10;99.90
9977;DHT22;5029;47.378;11.776;2023-01-16T11:23:18;0.00;99.90
9977;DHT22;5029;47.378;11.776;2023-01-16T11:28:24;0.00;99.90
9977;DHT22;5029;47.378;11.776;2023-01-16T11:33:34;0.10;99.90
9977;DHT22;5029;47.378;11.776;2023-01-16T11:38:44;0.20;99.90
9977;DHT22;5029;47.378;11.776;2023-01-16T11:44:05;0.30;99.90
9977;DHT22;5029;47.378;11.776;2023-01-16T11:49:36;0.50;99.90
9977;DHT22;5029;47.378;11.776;2023-01-16T11:54:41;0.70;99.90
9977;DHT22;5029;47.378;11.776;2023-01-16T12:05:35;0.90;99.90
9977;DHT22;5029;47.378;11.776;2023-01-16T12:11:05;0.90;99.90
9977;DHT22;5029;47.378;11.776;2023-01-16T12:16:16;0.90;99.90
9977;DHT22;5029;47.378;11.776;2023-01-16T12:21:32;0.80;99.90
9977;DHT22;5029;47.378;11.776;2023-01-16T12:26:46;1.30;99.90
9977;DHT22;5029;47.378;11.776;2023-01-16T12:32:03;1.60;99.90
9977;DHT22;5029;47.378;11.776;2023-01-16T12:37:19;1.80;99.90
9977;DHT22;5029;47.378;11.776;2023-01-16T12:42:34;2.00;99.90
9977;DHT22;5029;47.378;11.776;2023-01-16T12:48:11;2.20;99.90
9977;DHT22;5029;47.378;11.776;2023-01-16T12:53:59;2.20;99.90
9977;DHT22;5029;47.378;11.776;2023-01-16T12:59:14;2.20;99.90
9977;DHT22;5029;47.378;11.776;2023-01-16T13:04:23;2.20;99.90
9977;DHT22;5029;47.378;11.776;2023-01-16T13:09:33;2.00;99.90
9977;DHT22;5029;47.378;11.776;2023-01-16T13:14:39;1.90;99.90
9977;DHT22;5029;47.378;11.776;2023-01-16T13:19:49;1.90;99.90
9977;DHT22;5029;47.378;11.776;2023-01-16T13:24:59;1.90;99.90
9977;DHT22;5029;47.378;11.776;2023-01-16T13:30:08;1.90;99.90
9977;DHT22;5029;47.378;11.776;2023-01-16T13:35:16;1.90;99.90
9977;DHT22;5029;47.378;11.776;2023-01-16T13:40:33;1.90;99.90
9977;DHT22;5029;47.378;11.776;2023-01-16T13:45:42;1.90;99.90
9977;DHT22;5029;47.378;11.776;2023-01-16T13:50:56;2.10;99.90
9977;DHT22;5029;47.378;11.776;2023-01-16T13:56:08;2.20;99.90
9977;DHT22;5029;47.378;11.776;2023-01-16T14:01:33;2.20;99.90
9977;DHT22;5029;47.378;11.776;2023-01-16T14:06:44;2.30;99.90
9977;DHT22;5029;47.378;11.776;2023-01-16T14:12:01;2.40;99.90
9977;DHT22;5029;47.378;11.776;2023-01-16T14:17:17;2.50;99.90
9977;DHT22;5029;47.378;11.776;2023-01-16T14:22:23;2.50;99.90
9977;DHT22;5029;47.378;11.776;2023-01-16T14:27:50;2.40;99.90
9977;DHT22;5029;47.378;11.776;2023-01-16T14:32:56;2.20;99.90
9977;DHT22;5029;47.378;11.776;2023-01-16T14:38:04;2.00;99.90
9977;DHT22;5029;47.378;11.776;2023-01-16T14:43:14;1.80;99.90
9977;DHT22;5029;47.378;11.776;2023-01-16T14:48:36;1.60;99.90
9977;DHT22;5029;47.378;11.776;2023-01-16T14:53:59;1.50;99.90
9977;DHT22;5029;47.378;11.776;2023-01-16T14:59:27;1.50;99.90
9977;DHT22;5029;47.378;11.776;2023-01-16T15:04:39;1.50;99.90
9977;DHT22;5029;47.378;11.776;2023-01-16T15:09:45;1.50;99.90
9977;DHT22;5029;47.378;11.776;2023-01-16T15:14:56;1.40;99.90
9977;DHT22;5029;47.378;11.776;2023-01-16T15:20:18;1.40;99.90
9977;DHT22;5029;47.378;11.776;2023-01-16T15:31:17;1.40;99.90
9977;DHT22;5029;47.378;11.776;2023-01-16T15:36:24;1.30;99.90
9977;DHT22;5029;47.378;11.776;2023-01-16T15:41:30;1.30;99.90
9977;DHT22;5029;47.378;11.776;2023-01-16T15:47:06;1.30;99.90
9977;DHT22;5029;47.378;11.776;2023-01-16T15:52:12;1.20;99.90
9977;DHT22;5029;47.378;11.776;2023-01-16T15:57:17;1.10;99.90
9977;DHT22;5029;47.378;11.776;2023-01-16T16:02:24;1.00;99.90
9977;DHT22;5029;47.378;11.776;2023-01-16T16:07:30;0.90;99.90
9977;DHT22;5029;47.378;11.776;2023-01-16T16:12:33;0.80;99.90
9977;DHT22;5029;47.378;11.776;2023-01-16T16:17:38;0.70;99.90
9977;DHT22;5029;47.378;11.776;2023-01-16T16:23:03;0.50;99.90
9977;DHT22;5029;47.378;11.776;2023-01-16T16:28:18;0.50;99.90
9977;DHT22;5029;47.378;11.776;2023-01-16T16:33:24;0.60;99.90
9977;DHT22;5029;47.378;11.776;2023-01-16T16:38:30;0.60;99.90
9977;DHT22;5029;47.378;11.776;2023-01-16T16:43:42;0.50;99.90
9977;DHT22;5029;47.378;11.776;2023-01-16T16:48:50;0.50;99.90
9977;DHT22;5029;47.378;11.776;2023-01-16T16:53:56;0.30;99.90
9977;DHT22;5029;47.378;11.776;2023-01-16T16:59:00;0.30;99.90
9977;DHT22;5029;47.378;11.776;2023-01-16T17:04:12;0.30;99.90
9977;DHT22;5029;47.378;11.776;2023-01-16T17:09:19;0.40;99.90
9977;DHT22;5029;47.378;11.776;2023-01-16T17:14:24;0.50;99.90
9977;DHT22;5029;47.378;11.776;2023-01-16T17:19:30;0.30;99.90
9977;DHT22;5029;47.378;11.776;2023-01-16T17:24:34;0.10;99.90
9977;DHT22;5029;47.378;11.776;2023-01-16T17:29:38;0.10;99.90
9977;DHT22;5029;47.378;11.776;2023-01-16T17:34:46;0.20;99.90
9977;DHT22;5029;47.378;11.776;2023-01-16T17:39:49;0.20;99.90
9977;DHT22;5029;47.378;11.776;2023-01-16T17:44:53;0.20;99.90
9977;DHT22;5029;47.378;11.776;2023-01-16T17:50:16;0.00;99.90
9977;DHT22;5029;47.378;11.776;2023-01-16T17:55:28;0.50;99.90
9977;DHT22;5029;47.378;11.776;2023-01-16T18:00:50;0.40;99.90
9977;DHT22;5029;47.378;11.776;2023-01-16T18:05:59;0.30;99.90
9977;DHT22;5029;47.378;11.776;2023-01-16T18:11:04;0.10;99.90
9977;DHT22;5029;47.378;11.776;2023-01-16T18:16:22;0.40;99.90
9977;DHT22;5029;47.378;11.776;2023-01-16T18:21:46;0.80;99.90
9977;DHT22;5029;47.378;11.776;2023-01-16T18:27:12;0.90;99.90
9977;DHT22;5029;47.378;11.776;2023-01-16T18:32:17;0.90;99.90
9977;DHT22;5029;47.378;11.776;2023-01-16T18:37:32;1.20;99.90
9977;DHT22;5029;47.378;11.776;2023-01-16T18:42:36;1.20;99.90
9977;DHT22;5029;47.378;11.776;2023-01-16T18:48:00;1.50;99.90
9977;DHT22;5029;47.378;11.776;2023-01-16T18:53:26;1.20;99.90
9977;DHT22;5029;47.378;11.776;2023-01-16T18:58:48;1.00;99.90
9977;DHT22;5029;47.378;11.776;2023-01-16T19:04:10;0.80;99.90
9977;DHT22;5029;47.378;11.776;2023-01-16T19:09:17;0.90;99.90
9977;DHT22;5029;47.378;11.776;2023-01-16T19:14:24;0.70;99.90
9977;DHT22;5029;47.378;11.776;2023-01-16T19:19:33;0.50;99.90
9977;DHT22;5029;47.378;11.776;2023-01-16T19:24:40;0.00;99.90
9977;DHT22;5029;47.378;11.776;2023-01-16T19:29:44;0.00;99.90
9977;DHT22;5029;47.378;11.776;2023-01-16T19:34:50;-0.10;99.90
9977;DHT22;5029;47.378;11.776;2023-01-16T19:39:58;-0.10;99.90
9977;DHT22;5029;47.378;11.776;2023-01-16T19:45:06;-0.30;99.90
9977;DHT22;5029;47.378;11.776;2023-01-16T19:50:28;-0.40;99.90
9977;DHT22;5029;47.378;11.776;2023-01-16T19:55:36;-0.40;99.90
9977;DHT22;5029;47.378;11.776;2023-01-16T20:00:41;-0.40;99.90
9977;DHT22;5029;47.378;11.776;2023-01-16T20:06:05;-0.50;99.90
9977;DHT22;5029;47.378;11.776;2023-01-16T20:11:11;-0.30;99.90
9977;DHT22;5029;47.378;11.776;2023-01-16T20:16:15;0.20;99.90
9977;DHT22;5029;47.378;11.776;2023-01-16T20:21:20;-0.50;99.90
9977;DHT22;5029;47.378;11.776;2023-01-16T20:26:36;-0.90;99.90
9977;DHT22;5029;47.378;11.776;2023-01-16T20:31:42;-0.90;99.90
9977;DHT22;5029;47.378;11.776;2023-01-16T20:36:46;-1.00;99.90
9977;DHT22;5029;47.378;11.776;2023-01-16T20:41:53;-0.80;99.90
9977;DHT22;5029;47.378;11.776;2023-01-16T20:47:16;-0.80;99.90
9977;DHT22;5029;47.378;11.776;2023-01-16T20:52:21;-0.70;99.90
9977;DHT22;5029;47.378;11.776;2023-01-16T21:02:36;-0.50;99.90
9977;DHT22;5029;47.378;11.776;2023-01-16T21:07:40;-0.80;99.90
9977;DHT22;5029;47.378;11.776;2023-01-16T21:12:45;-0.70;99.90
9977;DHT22;5029;47.378;11.776;2023-01-16T21:18:10;-0.80;99.90
9977;DHT22;5029;47.378;11.776;2023-01-16T21:23:31;-0.80;99.90
9977;DHT22;5029;47.378;11.776;2023-01-16T21:28:37;-0.80;99.90
9977;DHT22;5029;47.378;11.776;2023-01-16T21:33:42;-0.70;99.90
9977;DHT22;5029;47.378;11.776;2023-01-16T21:38:45;-1.30;99.90
9977;DHT22;5029;47.378;11.776;2023-01-16T21:43:49;-1.10;99.90
9977;DHT22;5029;47.378;11.776;2023-01-16T21:49:10;-1.10;99.90
9977;DHT22;5029;47.378;11.776;2023-01-16T21:54:14;-1.20;99.90
9977;DHT22;5029;47.378;11.776;2023-01-16T21:59:17;-0.80;99.90
9977;DHT22;5029;47.378;11.776;2023-01-16T22:04:22;-1.10;99.90
9977;DHT22;5029;47.378;11.776;2023-01-16T22:09:25;-0.80;99.90
9977;DHT22;5029;47.378;11.776;2023-01-16T22:14:29;-1.20;99.90
9977;DHT22;5029;47.378;11.776;2023-01-16T22:19:51;-1.20;99.90
9977;DHT22;5029;47.378;11.776;2023-01-16T22:25:00;-1.30;99.90
9977;DHT22;5029;47.378;11.776;2023-01-16T22:30:04;-1.20;99.90
9977;DHT22;5029;47.378;11.776;2023-01-16T22:35:10;-1.10;99.90
9977;DHT22;5029;47.378;11.776;2023-01-16T22:40:13;-1.00;99.90
9977;DHT22;5029;47.378;11.776;2023-01-16T22:45:17;-0.90;99.90
9977;DHT22;5029;47.378;11.776;2023-01-16T22:50:39;-1.10;99.90
9977;DHT22;5029;47.378;11.776;2023-01-16T22:55:42;-1.20;99.90
9977;DHT22;5029;47.378;11.776;2023-01-16T23:00:48;-1.50;99.90
9977;DHT22;5029;47.378;11.776;2023-01-16T23:05:53;-1.30;99.90
9977;DHT22;5029;47.378;11.776;2023-01-16T23:11:07;-1.30;99.90
9977;DHT22;5029;47.378;11.776;2023-01-16T23:16:11;-1.50;99.90
9977;DHT22;5029;47.378;11.776;2023-01-16T23:21:16;-1.70;99.90
9977;DHT22;5029;47.378;11.776;2023-01-16T23:26:20;-1.70;99.90
9977;DHT22;5029;47.378;11.776;2023-01-16T23:31:24;-1.50;99.90
9977;DHT22;5029;47.378;11.776;2023-01-16T23:36:30;-1.70;99.90
9977;DHT22;5029;47.378;11.776;2023-01-16T23:41:33;-2.00;99.90
9977;DHT22;5029;47.378;11.776;2023-01-16T23:46:55;-1.80;99.90
9977;DHT22;5029;47.378;11.776;2023-01-16T23:52:00;-1.60;99.90
9977;DHT22;5029;47.378;11.776;2023-01-16T23:57:08;-1.70;99.90
